sensor_id;sensor_type;location;lat;lon;timestamp;pressure;altitude;pressure_sealevel;temperature;humidity
35694;BME280;21812;55.536;37.664;2023-04-12T00:01:16;99952.78;;;10.11;46.77
35694;BME280;21812;55.536;37.664;2023-04-12T00:03:41;99948.50;;;10.10;46.69
35694;BME280;21812;55.536;37.664;2023-04-12T00:06:07;99952.19;;;10.24;47.66
35694;BME280;21812;55.536;37.664;2023-04-12T00:08:34;99951.78;;;10.35;46.75
35694;BME280;21812;55.536;37.664;2023-04-12T00:11:01;99957.78;;;10.14;46.55
35694;BME280;21812;55.536;37.664;2023-04-12T00:13:28;99949.47;;;9.94;46.96
35694;BME280;21812;55.536;37.664;2023-04-12T00:15:54;99952.09;;;9.79;46.91
35694;BME280;21812;55.536;37.664;2023-04-12T00:18:20;99951.97;;;9.72;47.11
35694;BME280;21812;55.536;37.664;2023-04-12T00:20:52;99946.94;;;9.77;48.00
35694;BME280;21812;55.536;37.664;2023-04-12T00:23:17;99945.47;;;9.75;48.20
35694;BME280;21812;55.536;37.664;2023-04-12T00:25:43;99945.69;;;9.88;47.79
35694;BME280;21812;55.536;37.664;2023-04-12T00:28:09;99941.28;;;9.95;47.42
35694;BME280;21812;55.536;37.664;2023-04-12T00:30:35;99949.09;;;9.97;46.77
35694;BME280;21812;55.536;37.664;2023-04-12T00:33:01;99946.84;;;9.86;47.08
35694;BME280;21812;55.536;37.664;2023-04-12T00:35:27;99952.09;;;9.79;47.45
35694;BME280;21812;55.536;37.664;2023-04-12T00:37:52;99946.84;;;9.86;48.36
35694;BME280;21812;55.536;37.664;2023-04-12T00:40:19;99952.41;;;9.99;47.60
35694;BME280;21812;55.536;37.664;2023-04-12T00:42:45;99944.59;;;9.97;46.52
35694;BME280;21812;55.536;37.664;2023-04-12T00:45:11;99943.94;;;9.81;46.33
35694;BME280;21812;55.536;37.664;2023-04-12T00:47:37;99944.38;;;9.61;47.03
35694;BME280;21812;55.536;37.664;2023-04-12T00:50:04;99953.50;;;9.44;47.30
35694;BME280;21812;55.536;37.664;2023-04-12T00:52:31;99943.91;;;9.34;48.45
35694;BME280;21812;55.536;37.664;2023-04-12T00:55:02;99933.97;;;9.28;48.76
35694;BME280;21812;55.536;37.664;2023-04-12T00:57:38;99940.25;;;9.58;49.28
35694;BME280;21812;55.536;37.664;2023-04-12T01:00:06;99936.09;;;9.79;48.71
35694;BME280;21812;55.536;37.664;2023-04-12T01:02:33;99935.78;;;10.12;47.75
35694;BME280;21812;55.536;37.664;2023-04-12T01:05:00;99924.84;;;10.22;46.68
35694;BME280;21812;55.536;37.664;2023-04-12T01:07:46;99888.78;;;10.26;45.59
35694;BME280;21812;55.536;37.664;2023-04-12T01:15:38;99903.66;;;9.29;47.78
35694;BME280;21812;55.536;37.664;2023-04-12T01:18:11;99894.41;;;9.17;48.28
35694;BME280;21812;55.536;37.664;2023-04-12T01:20:41;99901.25;;;9.11;48.77
35694;BME280;21812;55.536;37.664;2023-04-12T01:26:41;99918.91;;;9.82;47.31
35694;BME280;21812;55.536;37.664;2023-04-12T01:29:17;99910.63;;;9.07;48.63
35694;BME280;21812;55.536;37.664;2023-04-12T01:31:57;99930.34;;;8.90;49.27
35694;BME280;21812;55.536;37.664;2023-04-12T01:34:25;99929.94;;;8.70;50.20
35694;BME280;21812;55.536;37.664;2023-04-12T01:36:54;99918.59;;;8.76;50.36
35694;BME280;21812;55.536;37.664;2023-04-12T01:39:21;99929.16;;;8.92;49.47
35694;BME280;21812;55.536;37.664;2023-04-12T01:41:48;99925.13;;;8.96;48.99
35694;BME280;21812;55.536;37.664;2023-04-12T01:44:15;99914.09;;;8.76;49.88
35694;BME280;21812;55.536;37.664;2023-04-12T01:46:42;99926.06;;;8.80;49.70
35694;BME280;21812;55.536;37.664;2023-04-12T01:49:09;99919.28;;;8.70;49.83
35694;BME280;21812;55.536;37.664;2023-04-12T01:51:55;99922.31;;;8.67;50.20
35694;BME280;21812;55.536;37.664;2023-04-12T01:54:29;99921.22;;;8.45;50.74
35694;BME280;21812;55.536;37.664;2023-04-12T01:56:57;99920.19;;;8.37;51.05
35694;BME280;21812;55.536;37.664;2023-04-12T01:59:40;99912.03;;;8.55;50.98
35694;BME280;21812;55.536;37.664;2023-04-12T02:02:09;99920.38;;;8.44;50.68
35694;BME280;21812;55.536;37.664;2023-04-12T02:04:36;99918.56;;;8.36;50.38
35694;BME280;21812;55.536;37.664;2023-04-12T02:07:02;99914.03;;;8.37;50.65
35694;BME280;21812;55.536;37.664;2023-04-12T02:09:28;99920.50;;;8.59;50.81
35694;BME280;21812;55.536;37.664;2023-04-12T02:11:54;99914.44;;;8.73;50.72
35694;BME280;21812;55.536;37.664;2023-04-12T02:14:21;99914.50;;;8.96;50.88
35694;BME280;21812;55.536;37.664;2023-04-12T02:16:46;99910.75;;;9.14;49.71
35694;BME280;21812;55.536;37.664;2023-04-12T02:19:12;99906.09;;;9.08;49.16
35694;BME280;21812;55.536;37.664;2023-04-12T02:21:41;99915.19;;;8.90;49.55
35694;BME280;21812;55.536;37.664;2023-04-12T02:24:08;99905.75;;;8.79;50.46
35694;BME280;21812;55.536;37.664;2023-04-12T02:26:36;99916.78;;;8.76;50.11
35694;BME280;21812;55.536;37.664;2023-04-12T02:29:04;99915.75;;;8.77;51.07
35694;BME280;21812;55.536;37.664;2023-04-12T02:31:34;99916.97;;;8.98;51.92
35694;BME280;21812;55.536;37.664;2023-04-12T02:34:01;99902.28;;;9.33;51.80
35694;BME280;21812;55.536;37.664;2023-04-12T02:36:29;99907.50;;;9.73;49.93
35694;BME280;21812;55.536;37.664;2023-04-12T02:38:55;99909.44;;;9.79;47.95
35694;BME280;21812;55.536;37.664;2023-04-12T02:41:22;99899.00;;;9.69;47.68
35694;BME280;21812;55.536;37.664;2023-04-12T02:43:48;99911.16;;;9.49;47.50
35694;BME280;21812;55.536;37.664;2023-04-12T02:46:18;99883.66;;;9.02;48.26
35694;BME280;21812;55.536;37.664;2023-04-12T02:48:48;99915.50;;;8.95;48.98
35694;BME280;21812;55.536;37.664;2023-04-12T02:51:15;99915.94;;;8.76;49.66
35694;BME280;21812;55.536;37.664;2023-04-12T02:53:46;99909.66;;;8.69;49.77
35694;BME280;21812;55.536;37.664;2023-04-12T02:56:16;99918.63;;;8.68;50.35
35694;BME280;21812;55.536;37.664;2023-04-12T02:58:46;99919.31;;;8.61;50.30
35694;BME280;21812;55.536;37.664;2023-04-12T03:01:19;99920.63;;;8.66;50.26
35694;BME280;21812;55.536;37.664;2023-04-12T03:04:07;99922.59;;;8.72;50.05
35694;BME280;21812;55.536;37.664;2023-04-12T03:06:48;99924.28;;;8.73;51.11
35694;BME280;21812;55.536;37.664;2023-04-12T03:09:23;99924.38;;;8.79;50.59
35694;BME280;21812;55.536;37.664;2023-04-12T03:11:50;99925.94;;;8.74;50.22
35694;BME280;21812;55.536;37.664;2023-04-12T03:14:16;99934.50;;;8.92;50.22
35694;BME280;21812;55.536;37.664;2023-04-12T03:16:42;99930.16;;;9.23;49.79
35694;BME280;21812;55.536;37.664;2023-04-12T03:19:13;99931.06;;;9.38;50.63
35694;BME280;21812;55.536;37.664;2023-04-12T03:21:39;99928.69;;;9.66;52.06
35694;BME280;21812;55.536;37.664;2023-04-12T03:24:06;99929.84;;;9.49;48.25
35694;BME280;21812;55.536;37.664;2023-04-12T03:26:34;99932.53;;;8.86;49.50
35694;BME280;21812;55.536;37.664;2023-04-12T03:29:09;99933.31;;;8.47;50.73
35694;BME280;21812;55.536;37.664;2023-04-12T03:31:37;99934.97;;;8.56;52.50
35694;BME280;21812;55.536;37.664;2023-04-12T03:34:09;99944.75;;;9.04;55.68
35694;BME280;21812;55.536;37.664;2023-04-12T03:36:39;99939.78;;;9.32;54.29
35694;BME280;21812;55.536;37.664;2023-04-12T03:39:32;99942.84;;;9.67;56.66
35694;BME280;21812;55.536;37.664;2023-04-12T03:41:58;99940.31;;;10.11;54.96
35694;BME280;21812;55.536;37.664;2023-04-12T03:44:29;99935.44;;;10.30;50.29
35694;BME280;21812;55.536;37.664;2023-04-12T03:46:58;99938.19;;;10.22;49.24
35694;BME280;21812;55.536;37.664;2023-04-12T03:49:28;99936.78;;;10.34;49.96
35694;BME280;21812;55.536;37.664;2023-04-12T03:51:54;99938.63;;;10.63;52.00
35694;BME280;21812;55.536;37.664;2023-04-12T03:54:21;99940.00;;;10.74;49.46
35694;BME280;21812;55.536;37.664;2023-04-12T03:56:58;99937.97;;;10.76;49.88
35694;BME280;21812;55.536;37.664;2023-04-12T03:59:36;99939.44;;;10.79;48.71
35694;BME280;21812;55.536;37.664;2023-04-12T04:02:02;99954.50;;;11.01;50.07
35694;BME280;21812;55.536;37.664;2023-04-12T04:04:31;99950.63;;;11.04;51.27
35694;BME280;21812;55.536;37.664;2023-04-12T04:07:02;99953.09;;;11.42;54.74
35694;BME280;21812;55.536;37.664;2023-04-12T04:09:36;99952.03;;;11.58;49.88
35694;BME280;21812;55.536;37.664;2023-04-12T04:12:02;99946.97;;;11.48;47.50
35694;BME280;21812;55.536;37.664;2023-04-12T04:14:29;99936.09;;;11.28;47.07
35694;BME280;21812;55.536;37.664;2023-04-12T04:16:57;99945.56;;;11.30;47.69
35694;BME280;21812;55.536;37.664;2023-04-12T04:19:22;99947.13;;;11.40;46.93
35694;BME280;21812;55.536;37.664;2023-04-12T04:21:48;99942.53;;;11.55;46.06
35694;BME280;21812;55.536;37.664;2023-04-12T04:24:15;99945.84;;;11.57;46.90
35694;BME280;21812;55.536;37.664;2023-04-12T04:26:45;99942.53;;;11.55;46.90
35694;BME280;21812;55.536;37.664;2023-04-12T04:29:23;99937.44;;;11.60;47.36
35694;BME280;21812;55.536;37.664;2023-04-12T04:31:50;99937.56;;;11.73;47.12
35694;BME280;21812;55.536;37.664;2023-04-12T04:34:18;99944.97;;;11.93;46.50
35694;BME280;21812;55.536;37.664;2023-04-12T04:36:46;99948.00;;;12.11;45.82
35694;BME280;21812;55.536;37.664;2023-04-12T04:39:19;99939.56;;;12.43;45.87
35694;BME280;21812;55.536;37.664;2023-04-12T04:41:45;99944.16;;;12.56;45.62
35694;BME280;21812;55.536;37.664;2023-04-12T04:44:28;99949.72;;;12.96;49.20
35694;BME280;21812;55.536;37.664;2023-04-12T04:46:55;99941.53;;;13.10;46.40
35694;BME280;21812;55.536;37.664;2023-04-12T04:49:23;99938.66;;;13.19;46.18
35694;BME280;21812;55.536;37.664;2023-04-12T04:51:49;99948.25;;;13.35;46.54
35694;BME280;21812;55.536;37.664;2023-04-12T04:54:16;99930.91;;;13.44;45.05
35694;BME280;21812;55.536;37.664;2023-04-12T04:56:42;99937.28;;;13.36;43.01
35694;BME280;21812;55.536;37.664;2023-04-12T04:59:10;99935.47;;;13.37;43.73
35694;BME280;21812;55.536;37.664;2023-04-12T05:01:36;99928.47;;;13.62;46.61
35694;BME280;21812;55.536;37.664;2023-04-12T05:04:03;99938.78;;;13.72;45.07
35694;BME280;21812;55.536;37.664;2023-04-12T05:06:29;99935.28;;;13.78;45.02
35694;BME280;21812;55.536;37.664;2023-04-12T05:08:57;99938.19;;;13.77;41.98
35694;BME280;21812;55.536;37.664;2023-04-12T05:11:23;99932.63;;;13.85;43.61
35694;BME280;21812;55.536;37.664;2023-04-12T05:13:49;99937.38;;;13.83;42.08
35694;BME280;21812;55.536;37.664;2023-04-12T05:16:15;99933.00;;;13.95;41.58
35694;BME280;21812;55.536;37.664;2023-04-12T05:18:41;99930.56;;;14.07;42.96
35694;BME280;21812;55.536;37.664;2023-04-12T05:21:07;99933.81;;;14.36;45.36
35694;BME280;21812;55.536;37.664;2023-04-12T05:23:40;99937.50;;;14.48;43.01
35694;BME280;21812;55.536;37.664;2023-04-12T05:26:08;99933.78;;;14.62;44.38
35694;BME280;21812;55.536;37.664;2023-04-12T05:28:33;99929.19;;;14.76;43.52
35694;BME280;21812;55.536;37.664;2023-04-12T05:30:59;99933.09;;;14.87;42.49
35694;BME280;21812;55.536;37.664;2023-04-12T05:33:32;99933.91;;;14.81;39.61
35694;BME280;21812;55.536;37.664;2023-04-12T05:36:00;99935.94;;;14.99;42.49
35694;BME280;21812;55.536;37.664;2023-04-12T05:38:27;99942.66;;;15.21;43.36
35694;BME280;21812;55.536;37.664;2023-04-12T05:40:56;99944.59;;;15.46;44.64
35694;BME280;21812;55.536;37.664;2023-04-12T05:43:22;99944.81;;;15.70;45.13
35694;BME280;21812;55.536;37.664;2023-04-12T05:45:49;99913.78;;;15.67;44.95
35694;BME280;21812;55.536;37.664;2023-04-12T05:48:16;99933.03;;;15.39;37.61
35694;BME280;21812;55.536;37.664;2023-04-12T05:50:49;99941.09;;;14.94;37.95
35694;BME280;21812;55.536;37.664;2023-04-12T05:53:16;99938.75;;;14.45;38.31
35694;BME280;21812;55.536;37.664;2023-04-12T05:55:41;99937.97;;;14.12;38.87
35694;BME280;21812;55.536;37.664;2023-04-12T05:58:07;99937.59;;;13.88;38.82
35694;BME280;21812;55.536;37.664;2023-04-12T06:00:35;99907.00;;;13.49;38.96
35694;BME280;21812;55.536;37.664;2023-04-12T06:03:00;99942.09;;;13.54;39.05
35694;BME280;21812;55.536;37.664;2023-04-12T06:05:27;99940.00;;;13.43;38.94
35694;BME280;21812;55.536;37.664;2023-04-12T06:07:52;99950.94;;;13.35;39.02
35694;BME280;21812;55.536;37.664;2023-04-12T06:10:18;99943.63;;;13.22;38.40
35694;BME280;21812;55.536;37.664;2023-04-12T06:12:50;99939.91;;;13.16;38.96
35694;BME280;21812;55.536;37.664;2023-04-12T06:15:17;99942.34;;;13.11;39.31
35694;BME280;21812;55.536;37.664;2023-04-12T06:17:46;99946.03;;;13.03;38.59
35694;BME280;21812;55.536;37.664;2023-04-12T06:20:11;99938.81;;;13.04;38.73
35694;BME280;21812;55.536;37.664;2023-04-12T06:22:38;99936.97;;;13.04;38.08
35694;BME280;21812;55.536;37.664;2023-04-12T06:25:05;99940.28;;;13.06;37.36
35694;BME280;21812;55.536;37.664;2023-04-12T06:27:31;99932.44;;;13.05;37.68
35694;BME280;21812;55.536;37.664;2023-04-12T06:29:57;99932.81;;;13.02;37.44
35694;BME280;21812;55.536;37.664;2023-04-12T06:32:23;99937.81;;;13.05;37.50
35694;BME280;21812;55.536;37.664;2023-04-12T06:34:50;99936.56;;;13.07;37.17
35694;BME280;21812;55.536;37.664;2023-04-12T06:37:15;99930.38;;;13.07;36.78
35694;BME280;21812;55.536;37.664;2023-04-12T06:39:41;99930.78;;;13.04;37.20
35694;BME280;21812;55.536;37.664;2023-04-12T06:42:07;99932.44;;;13.05;37.31
35694;BME280;21812;55.536;37.664;2023-04-12T06:44:36;99925.88;;;13.14;37.20
35694;BME280;21812;55.536;37.664;2023-04-12T06:47:02;99934.13;;;13.19;36.95
35694;BME280;21812;55.536;37.664;2023-04-12T06:49:28;99932.72;;;13.23;36.86
35694;BME280;21812;55.536;37.664;2023-04-12T06:51:53;99925.50;;;13.30;36.84
35694;BME280;21812;55.536;37.664;2023-04-12T06:54:19;99929.66;;;13.40;36.90
35694;BME280;21812;55.536;37.664;2023-04-12T06:56:45;99923.09;;;13.49;37.26
35694;BME280;21812;55.536;37.664;2023-04-12T06:59:10;99922.69;;;13.52;36.69
35694;BME280;21812;55.536;37.664;2023-04-12T07:01:36;99923.09;;;13.56;34.77
35694;BME280;21812;55.536;37.664;2023-04-12T07:04:02;99916.50;;;13.58;35.10
35694;BME280;21812;55.536;37.664;2023-04-12T07:06:27;99920.63;;;13.54;35.84
35694;BME280;21812;55.536;37.664;2023-04-12T07:08:53;99917.94;;;13.54;36.51
35694;BME280;21812;55.536;37.664;2023-04-12T07:11:20;99921.88;;;13.58;36.50
35694;BME280;21812;55.536;37.664;2023-04-12T07:13:47;99920.03;;;13.65;36.95
35694;BME280;21812;55.536;37.664;2023-04-12T07:16:12;99916.50;;;13.72;36.25
35694;BME280;21812;55.536;37.664;2023-04-12T07:18:38;99914.03;;;13.77;36.51
35694;BME280;21812;55.536;37.664;2023-04-12T07:21:04;99906.19;;;13.82;36.08
35694;BME280;21812;55.536;37.664;2023-04-12T07:23:30;99906.59;;;13.85;35.66
35694;BME280;21812;55.536;37.664;2023-04-12T07:26:00;99908.84;;;13.95;35.61
35694;BME280;21812;55.536;37.664;2023-04-12T07:28:26;99913.81;;;13.98;35.87
35694;BME280;21812;55.536;37.664;2023-04-12T07:30:52;99915.06;;;14.02;34.37
35694;BME280;21812;55.536;37.664;2023-04-12T07:33:18;99911.97;;;14.05;34.13
35694;BME280;21812;55.536;37.664;2023-04-12T07:35:43;99907.81;;;14.10;33.89
35694;BME280;21812;55.536;37.664;2023-04-12T07:38:09;99907.00;;;14.09;33.97
35694;BME280;21812;55.536;37.664;2023-04-12T07:40:35;99911.13;;;14.12;33.90
35694;BME280;21812;55.536;37.664;2023-04-12T07:43:00;99911.34;;;14.17;34.38
35694;BME280;21812;55.536;37.664;2023-04-12T07:45:26;99907.81;;;14.23;34.16
35694;BME280;21812;55.536;37.664;2023-04-12T07:47:51;99910.25;;;14.31;34.34
35694;BME280;21812;55.536;37.664;2023-04-12T07:50:17;99907.16;;;14.34;33.40
35694;BME280;21812;55.536;37.664;2023-04-12T07:52:43;99902.41;;;14.36;33.02
35694;BME280;21812;55.536;37.664;2023-04-12T07:55:08;99898.25;;;14.40;33.36
35694;BME280;21812;55.536;37.664;2023-04-12T07:57:34;99889.78;;;14.43;32.72
35694;BME280;21812;55.536;37.664;2023-04-12T08:00:00;99895.16;;;14.43;33.50
35694;BME280;21812;55.536;37.664;2023-04-12T08:02:26;99890.16;;;14.54;33.57
35694;BME280;21812;55.536;37.664;2023-04-12T08:04:55;99896.78;;;14.64;33.63
35694;BME280;21812;55.536;37.664;2023-04-12T08:07:21;99891.16;;;14.73;33.78
35694;BME280;21812;55.536;37.664;2023-04-12T08:09:47;99887.66;;;14.72;31.43
35694;BME280;21812;55.536;37.664;2023-04-12T08:12:13;99888.25;;;14.74;32.10
35694;BME280;21812;55.536;37.664;2023-04-12T08:14:39;99886.38;;;14.81;32.03
35694;BME280;21812;55.536;37.664;2023-04-12T08:17:05;99873.69;;;14.89;31.55
35694;BME280;21812;55.536;37.664;2023-04-12T08:19:31;99878.06;;;14.90;31.88
35694;BME280;21812;55.536;37.664;2023-04-12T08:21:57;99875.56;;;14.95;31.70
35694;BME280;21812;55.536;37.664;2023-04-12T08:24:22;99868.72;;;14.92;31.33
35694;BME280;21812;55.536;37.664;2023-04-12T08:26:51;99872.03;;;14.94;31.78
35694;BME280;21812;55.536;37.664;2023-04-12T08:29:17;99867.03;;;14.98;31.23
35694;BME280;21812;55.536;37.664;2023-04-12T08:31:43;99865.16;;;15.05;31.80
35694;BME280;21812;55.536;37.664;2023-04-12T08:34:09;99865.72;;;15.14;31.79
35694;BME280;21812;55.536;37.664;2023-04-12T08:36:34;99865.25;;;15.23;31.18
35694;BME280;21812;55.536;37.664;2023-04-12T08:39:00;99867.66;;;15.32;31.99
35694;BME280;21812;55.536;37.664;2023-04-12T08:41:29;99868.00;;;15.42;32.24
35694;BME280;21812;55.536;37.664;2023-04-12T08:43:54;99866.69;;;15.51;31.16
35694;BME280;21812;55.536;37.664;2023-04-12T08:46:20;99861.31;;;15.51;29.74
35694;BME280;21812;55.536;37.664;2023-04-12T08:48:47;99870.75;;;15.60;30.56
35694;BME280;21812;55.536;37.664;2023-04-12T08:51:15;99863.75;;;15.59;29.23
35694;BME280;21812;55.536;37.664;2023-04-12T08:53:41;99865.97;;;15.62;29.30
35694;BME280;21812;55.536;37.664;2023-04-12T08:56:11;99863.63;;;15.73;29.80
35694;BME280;21812;55.536;37.664;2023-04-12T08:58:43;99858.25;;;15.73;29.50
35694;BME280;21812;55.536;37.664;2023-04-12T09:01:11;99862.59;;;15.74;28.86
35694;BME280;21812;55.536;37.664;2023-04-12T09:03:43;99853.22;;;15.83;30.08
35694;BME280;21812;55.536;37.664;2023-04-12T09:06:10;99857.72;;;15.89;28.76
35694;BME280;21812;55.536;37.664;2023-04-12T09:08:36;99849.38;;;15.97;28.31
35694;BME280;21812;55.536;37.664;2023-04-12T09:11:20;99820.00;;;15.89;28.94
35694;BME280;21812;55.536;37.664;2023-04-12T09:13:45;99840.09;;;16.12;29.36
35694;BME280;21812;55.536;37.664;2023-04-12T09:16:11;99838.75;;;16.21;28.81
35694;BME280;21812;55.536;37.664;2023-04-12T09:18:47;99810.88;;;16.09;28.49
35694;BME280;21812;55.536;37.664;2023-04-12T09:21:13;99841.13;;;16.29;28.75
35694;BME280;21812;55.536;37.664;2023-04-12T09:23:38;99831.09;;;16.36;27.97
35694;BME280;21812;55.536;37.664;2023-04-12T09:26:04;99822.59;;;16.39;27.96
35694;BME280;21812;55.536;37.664;2023-04-12T09:28:31;99815.97;;;16.54;29.00
35694;BME280;21812;55.536;37.664;2023-04-12T09:30:58;99812.84;;;16.57;28.81
35694;BME280;21812;55.536;37.664;2023-04-12T09:33:37;99814.16;;;16.66;28.35
35694;BME280;21812;55.536;37.664;2023-04-12T09:36:04;99811.91;;;16.63;28.05
35694;BME280;21812;55.536;37.664;2023-04-12T09:38:31;99805.75;;;16.74;29.21
35694;BME280;21812;55.536;37.664;2023-04-12T09:41:15;99808.31;;;16.99;29.12
35694;BME280;21812;55.536;37.664;2023-04-12T09:43:41;99807.91;;;17.14;27.55
35694;BME280;21812;55.536;37.664;2023-04-12T09:46:13;99800.63;;;17.27;27.83
35694;BME280;21812;55.536;37.664;2023-04-12T09:48:40;99798.66;;;17.34;27.37
35694;BME280;21812;55.536;37.664;2023-04-12T09:51:06;99798.94;;;17.44;29.26
35694;BME280;21812;55.536;37.664;2023-04-12T09:53:38;99800.41;;;17.40;27.38
35694;BME280;21812;55.536;37.664;2023-04-12T09:56:08;99795.75;;;17.59;28.25
35694;BME280;21812;55.536;37.664;2023-04-12T09:58:35;99801.41;;;17.81;27.66
35694;BME280;21812;55.536;37.664;2023-04-12T10:01:02;99789.78;;;17.81;26.64
35694;BME280;21812;55.536;37.664;2023-04-12T10:03:28;99797.66;;;17.94;26.98
35694;BME280;21812;55.536;37.664;2023-04-12T10:05:54;99790.09;;;18.20;27.54
35694;BME280;21812;55.536;37.664;2023-04-12T10:08:22;99759.66;;;18.24;25.88
35694;BME280;21812;55.536;37.664;2023-04-12T10:10:48;99776.44;;;18.67;26.78
35694;BME280;21812;55.536;37.664;2023-04-12T10:13:14;99770.94;;;19.07;26.57
35694;BME280;21812;55.536;37.664;2023-04-12T10:15:44;99769.72;;;19.32;26.40
35694;BME280;21812;55.536;37.664;2023-04-12T10:18:10;99780.53;;;19.66;25.48
35694;BME280;21812;55.536;37.664;2023-04-12T10:20:39;99756.41;;;19.81;25.47
35694;BME280;21812;55.536;37.664;2023-04-12T10:23:12;99756.84;;;19.95;24.86
35694;BME280;21812;55.536;37.664;2023-04-12T10:25:38;99766.81;;;20.11;24.32
35694;BME280;21812;55.536;37.664;2023-04-12T10:28:19;99746.59;;;20.19;23.33
35694;BME280;21812;55.536;37.664;2023-04-12T10:30:46;99766.13;;;20.43;23.07
35694;BME280;21812;55.536;37.664;2023-04-12T10:33:15;99757.28;;;20.53;23.17
35694;BME280;21812;55.536;37.664;2023-04-12T10:38:13;99754.97;;;21.26;22.58
35694;BME280;21812;55.536;37.664;2023-04-12T10:41:17;99748.50;;;21.65;23.81
35694;BME280;21812;55.536;37.664;2023-04-12T10:43:47;99742.72;;;22.04;21.33
35694;BME280;21812;55.536;37.664;2023-04-12T10:49:10;99731.72;;;22.41;21.49
35694;BME280;21812;55.536;37.664;2023-04-12T10:51:39;99734.50;;;22.67;21.24
35694;BME280;21812;55.536;37.664;2023-04-12T10:56:51;99718.72;;;23.36;21.35
35694;BME280;21812;55.536;37.664;2023-04-12T10:59:23;99697.75;;;23.41;19.70
35694;BME280;21812;55.536;37.664;2023-04-12T11:02:08;99702.34;;;23.67;20.63
35694;BME280;21812;55.536;37.664;2023-04-12T11:04:34;99692.94;;;24.09;20.05
35694;BME280;21812;55.536;37.664;2023-04-12T11:07:08;99699.78;;;24.51;19.91
35694;BME280;21812;55.536;37.664;2023-04-12T11:09:56;99699.34;;;24.78;18.79
35694;BME280;21812;55.536;37.664;2023-04-12T11:12:26;99680.59;;;25.01;18.88
35694;BME280;21812;55.536;37.664;2023-04-12T11:14:58;99632.66;;;25.43;19.98
35694;BME280;21812;55.536;37.664;2023-04-12T11:17:26;99675.81;;;25.89;18.10
35694;BME280;21812;55.536;37.664;2023-04-12T11:19:59;99673.69;;;25.86;17.55
35694;BME280;21812;55.536;37.664;2023-04-12T11:22:30;99680.63;;;26.21;17.49
35694;BME280;21812;55.536;37.664;2023-04-12T11:25:00;99672.41;;;26.40;17.56
35694;BME280;21812;55.536;37.664;2023-04-12T11:27:28;99683.44;;;26.73;17.60
35694;BME280;21812;55.536;37.664;2023-04-12T11:29:56;99680.63;;;27.44;16.67
35694;BME280;21812;55.536;37.664;2023-04-12T11:32:24;99673.50;;;27.43;16.74
35694;BME280;21812;55.536;37.664;2023-04-12T11:34:53;99649.13;;;27.41;16.22
35694;BME280;21812;55.536;37.664;2023-04-12T11:37:19;99665.47;;;27.88;16.63
35694;BME280;21812;55.536;37.664;2023-04-12T11:39:46;99653.69;;;28.38;15.96
35694;BME280;21812;55.536;37.664;2023-04-12T11:42:15;99642.00;;;28.32;15.41
35694;BME280;21812;55.536;37.664;2023-04-12T11:44:42;99644.13;;;28.35;15.04
35694;BME280;21812;55.536;37.664;2023-04-12T11:47:22;99636.44;;;28.60;15.24
35694;BME280;21812;55.536;37.664;2023-04-12T11:49:50;99662.19;;;28.95;14.99
35694;BME280;21812;55.536;37.664;2023-04-12T11:52:17;99659.69;;;29.08;13.97
35694;BME280;21812;55.536;37.664;2023-04-12T11:54:52;99650.16;;;29.45;14.62
35694;BME280;21812;55.536;37.664;2023-04-12T11:57:21;99642.38;;;29.78;13.41
35694;BME280;21812;55.536;37.664;2023-04-12T11:59:47;99648.13;;;30.34;13.26
35694;BME280;21812;55.536;37.664;2023-04-12T12:02:15;99651.16;;;30.07;13.71
35694;BME280;21812;55.536;37.664;2023-04-12T12:04:44;99618.63;;;30.44;12.80
35694;BME280;21812;55.536;37.664;2023-04-12T12:07:20;99636.09;;;30.04;12.96
35694;BME280;21812;55.536;37.664;2023-04-12T12:09:46;99635.91;;;29.74;13.14
35694;BME280;21812;55.536;37.664;2023-04-12T12:12:13;99628.09;;;29.28;13.52
35694;BME280;21812;55.536;37.664;2023-04-12T12:14:40;99633.25;;;29.69;14.50
35694;BME280;21812;55.536;37.664;2023-04-12T12:17:12;99629.63;;;30.70;13.57
35694;BME280;21812;55.536;37.664;2023-04-12T12:19:40;99608.41;;;30.53;12.55
35694;BME280;21812;55.536;37.664;2023-04-12T12:24:34;99623.19;;;30.39;13.68
35694;BME280;21812;55.536;37.664;2023-04-12T12:27:01;99613.94;;;31.17;11.92
35694;BME280;21812;55.536;37.664;2023-04-12T12:29:33;99612.94;;;31.22;11.87
35694;BME280;21812;55.536;37.664;2023-04-12T12:32:00;99608.66;;;30.86;13.26
35694;BME280;21812;55.536;37.664;2023-04-12T12:34:33;99590.44;;;30.47;12.86
35694;BME280;21812;55.536;37.664;2023-04-12T12:36:59;99606.28;;;30.67;12.23
35694;BME280;21812;55.536;37.664;2023-04-12T12:39:25;99605.06;;;31.03;13.07
35694;BME280;21812;55.536;37.664;2023-04-12T12:41:54;99604.63;;;31.31;12.36
35694;BME280;21812;55.536;37.664;2023-04-12T12:44:24;99603.63;;;31.35;11.91
35694;BME280;21812;55.536;37.664;2023-04-12T12:46:52;99602.69;;;30.93;12.27
35694;BME280;21812;55.536;37.664;2023-04-12T12:49:19;99596.19;;;30.89;12.51
35694;BME280;21812;55.536;37.664;2023-04-12T12:51:45;99598.94;;;31.36;11.70
35694;BME280;21812;55.536;37.664;2023-04-12T12:54:11;99595.72;;;31.34;12.23
35694;BME280;21812;55.536;37.664;2023-04-12T12:56:38;99586.75;;;31.07;12.29
35694;BME280;21812;55.536;37.664;2023-04-12T12:59:07;99589.41;;;30.77;12.10
35694;BME280;21812;55.536;37.664;2023-04-12T13:01:33;99589.16;;;31.09;12.98
35694;BME280;21812;55.536;37.664;2023-04-12T13:03:59;99574.16;;;31.27;12.47
35694;BME280;21812;55.536;37.664;2023-04-12T13:06:25;99578.00;;;31.35;12.89
35694;BME280;21812;55.536;37.664;2023-04-12T13:08:51;99571.94;;;31.50;13.22
35694;BME280;21812;55.536;37.664;2023-04-12T13:11:19;99571.06;;;31.59;12.17
35694;BME280;21812;55.536;37.664;2023-04-12T13:13:45;99574.22;;;31.48;12.10
35694;BME280;21812;55.536;37.664;2023-04-12T13:16:11;99575.66;;;31.54;12.05
35694;BME280;21812;55.536;37.664;2023-04-12T13:18:36;99569.03;;;32.19;11.65